Time,TemperatureF,DewpointF,PressureIn,WindDirection,WindDirectionDegrees,WindSpeedMPH,WindSpeedGustMPH,Humidity,HourlyPrecipIn,Conditions,Clouds,dailyrainin,SoftwareType,DateUTC
2013-04-09 00:10:00,49.8,40.0,29.85,ESE,110,1.0,1.0,70,0.00,,,0.00,weatherlink.com 1.10,2013-04-09 07:10:00,
2013-04-09 00:25:00,49.4,40.0,29.84,WSW,253,0.0,2.0,69,0.00,,,0.00,weatherlink.com 1.10,2013-04-09 07:25:00,
2013-04-09 00:40:00,49.1,40.0,29.85,WNW,285,0.0,3.0,70,0.00,,,0.00,weatherlink.com 1.10,2013-04-09 07:40:00,
2013-04-09 00:55:00,48.6,40.0,29.85,North,5,0.0,3.0,71,0.00,,,0.00,weatherlink.com 1.10,2013-04-09 07:55:00,
2013-04-09 01:10:00,48.0,40.0,29.86,NNE,23,0.0,2.0,73,0.00,,,0.00,weatherlink.com 1.10,2013-04-09 08:10:00,
2013-04-09 01:25:00,47.4,40.0,29.86,ESE,103,0.0,0.0,74,0.00,,,0.00,weatherlink.com 1.10,2013-04-09 08:25:00,
2013-04-09 01:40:00,46.6,39.0,29.86,West,259,2.0,2.0,75,0.00,,,0.00,weatherlink.com 1.10,2013-04-09 08:40:00,
2013-04-09 01:55:00,46.3,39.0,29.86,NNE,25,1.0,3.0,76,0.00,,,0.00,weatherlink.com 1.10,2013-04-09 08:55:00,
2013-04-09 02:10:00,46.2,39.0,29.86,SE,127,2.0,3.0,76,0.00,,,0.00,weatherlink.com 1.10,2013-04-09 09:10:00,
2013-04-09 02:25:00,46.1,38.0,29.86,NW,314,5.0,5.0,74,0.00,,,0.00,weatherlink.com 1.10,2013-04-09 09:25:00,
2013-04-09 02:40:00,46.9,39.0,29.84,SE,125,0.0,4.0,74,0.00,,,0.00,weatherlink.com 1.10,2013-04-09 09:40:00,
2013-04-09 02:55:00,46.9,38.0,29.85,NNE,25,0.0,3.0,72,0.00,,,0.00,weatherlink.com 1.10,2013-04-09 09:55:00,
2013-04-09 03:10:00,46.3,38.0,29.85,SSW,193,1.0,1.0,72,0.00,,,0.00,weatherlink.com 1.10,2013-04-09 10:10:00,
2013-04-09 03:25:00,45.4,38.0,29.85,ENE,75,0.0,1.0,74,0.00,,,0.00,weatherlink.com 1.10,2013-04-09 10:25:00,
2013-04-09 03:40:00,44.2,37.0,29.85,ESE,112,1.0,1.0,76,0.00,,,0.00,weatherlink.com 1.10,2013-04-09 10:40:00,
2013-04-09 03:55:00,43.5,37.0,29.86,East,98,1.0,1.0,79,0.00,,,0.00,weatherlink.com 1.10,2013-04-09 10:55:00,
2013-04-09 04:11:00,42.6,37.0,29.86,SE,127,1.0,1.0,79,0.00,,,0.00,weatherlink.com 1.10,2013-04-09 11:11:00,
2013-04-09 04:26:00,42.4,37.0,29.86,East,86,0.0,1.0,80,0.00,,,0.00,weatherlink.com 1.10,2013-04-09 11:26:00,
2013-04-09 04:41:00,42.4,37.0,29.87,WNW,284,0.0,2.0,80,0.00,,,0.00,weatherlink.com 1.10,2013-04-09 11:41:00,
2013-04-09 04:56:00,41.9,36.0,29.87,SE,138,0.0,1.0,80,0.00,,,0.00,weatherlink.com 1.10,2013-04-09 11:56:00,
2013-04-09 06:26:00,40.3,35.0,29.90,ESE,123,0.0,0.0,81,0.00,,,0.00,weatherlink.com 1.10,2013-04-09 13:26:00,
2013-04-09 06:41:00,39.7,35.0,29.91,SE,125,0.0,1.0,82,0.00,,,0.00,weatherlink.com 1.10,2013-04-09 13:41:00,
2013-04-09 06:56:00,39.7,35.0,29.91,SSE,167,0.0,0.0,83,0.00,,,0.00,weatherlink.com 1.10,2013-04-09 13:56:00,
2013-04-09 07:11:00,40.0,36.0,29.93,SSE,167,0.0,0.0,84,0.00,,,0.00,weatherlink.com 1.10,2013-04-09 14:11:00,
2013-04-09 07:26:00,40.9,37.0,29.93,SSE,167,0.0,0.0,85,0.00,,,0.00,weatherlink.com 1.10,2013-04-09 14:26:00,
2013-04-09 07:56:00,50.6,42.0,29.95,West,276,0.0,0.0,73,0.00,,,0.00,weatherlink.com 1.10,2013-04-09 14:56:00,
2013-04-09 08:11:00,55.7,43.0,29.95,West,276,0.0,0.0,62,0.00,,,0.00,weatherlink.com 1.10,2013-04-09 15:11:00,
2013-04-09 08:26:00,59.7,40.0,29.95,East,90,0.0,0.0,48,0.00,,,0.00,weatherlink.com 1.10,2013-04-09 15:26:00,
2013-04-09 08:41:00,59.6,36.0,29.95,West,259,0.0,0.0,41,0.00,,,0.00,weatherlink.com 1.10,2013-04-09 15:41:00,
2013-04-09 08:57:00,61.1,31.0,29.96,East,85,4.0,5.0,32,0.00,,,0.00,weatherlink.com 1.10,2013-04-09 15:57:00,
2013-04-09 09:11:00,61.6,31.0,29.95,NNE,13,0.0,8.0,31,0.00,,,0.00,weatherlink.com 1.10,2013-04-09 16:11:00,
2013-04-09 09:27:00,62.9,27.0,29.95,NNE,23,1.0,6.0,26,0.00,,,0.00,weatherlink.com 1.10,2013-04-09 16:27:00,
2013-04-09 09:42:00,63.8,27.0,29.96,North,5,2.0,4.0,25,0.00,,,0.00,weatherlink.com 1.10,2013-04-09 16:42:00,
2013-04-09 09:57:00,64.3,24.0,29.95,NE,54,2.0,5.0,22,0.00,,,0.00,weatherlink.com 1.10,2013-04-09 16:57:00,
2013-04-09 10:12:00,65.6,28.0,29.96,SE,133,2.0,7.0,24,0.00,,,0.00,weatherlink.com 1.10,2013-04-09 17:12:00,
2013-04-09 10:27:00,65.5,24.0,29.96,WSW,237,0.0,5.0,21,0.00,,,0.00,weatherlink.com 1.10,2013-04-09 17:27:00,
2013-04-09 10:42:00,66.0,26.0,29.96,SW,228,11.0,11.0,22,0.00,,,0.00,weatherlink.com 1.10,2013-04-09 17:42:00,
2013-04-09 10:57:00,67.9,26.0,29.96,WSW,246,6.0,8.0,21,0.00,,,0.00,weatherlink.com 1.10,2013-04-09 17:57:00,
2013-04-09 11:27:00,67.4,25.0,29.94,WSW,249,3.0,9.0,20,0.00,,,0.00,weatherlink.com 1.10,2013-04-09 18:27:00,
2013-04-09 11:57:00,69.4,27.0,29.93,West,280,2.0,8.0,20,0.00,,,0.00,weatherlink.com 1.10,2013-04-09 18:57:00,
2013-04-09 12:12:00,70.3,23.0,29.93,WNW,298,3.0,8.0,17,0.00,,,0.00,weatherlink.com 1.10,2013-04-09 19:12:00,
2013-04-09 12:27:00,70.9,24.0,29.93,West,263,9.0,9.0,17,0.00,,,0.00,weatherlink.com 1.10,2013-04-09 19:27:00,
2013-04-09 12:42:00,71.1,24.0,29.91,WSW,243,1.0,8.0,17,0.00,,,0.00,weatherlink.com 1.10,2013-04-09 19:42:00,
2013-04-09 12:57:00,71.1,28.0,29.91,West,275,2.0,11.0,20,0.00,,,0.00,weatherlink.com 1.10,2013-04-09 19:57:00,
2013-04-09 13:12:00,70.5,30.0,29.91,WNW,288,5.0,14.0,22,0.00,,,0.00,weatherlink.com 1.10,2013-04-09 20:12:00,
2013-04-09 13:27:00,70.7,30.0,29.91,NW,309,7.0,10.0,22,0.00,,,0.00,weatherlink.com 1.10,2013-04-09 20:27:00,
2013-04-09 13:42:00,70.7,31.0,29.91,West,259,3.0,11.0,23,0.00,,,0.00,weatherlink.com 1.10,2013-04-09 20:42:00,
2013-04-09 13:57:00,70.7,30.0,29.91,WNW,298,7.0,12.0,22,0.00,,,0.00,weatherlink.com 1.10,2013-04-09 20:57:00,
2013-04-09 14:12:00,71.0,32.0,29.90,West,274,9.0,11.0,24,0.00,,,0.00,weatherlink.com 1.10,2013-04-09 21:12:00,
2013-04-09 14:27:00,70.2,34.0,29.90,WSW,255,3.0,14.0,26,0.00,,,0.00,weatherlink.com 1.10,2013-04-09 21:27:00,
2013-04-09 14:42:00,69.6,33.0,29.91,West,260,5.0,14.0,26,0.00,,,0.00,weatherlink.com 1.10,2013-04-09 21:42:00,
2013-04-09 14:57:00,70.0,38.0,29.90,NNW,333,3.0,12.0,31,0.00,,,0.00,weatherlink.com 1.10,2013-04-09 21:57:00,
2013-04-09 15:12:00,69.6,36.0,29.90,WSW,252,3.0,14.0,29,0.00,,,0.00,weatherlink.com 1.10,2013-04-09 22:12:00,
2013-04-09 15:27:00,70.2,35.0,29.90,West,264,9.0,12.0,28,0.00,,,0.00,weatherlink.com 1.10,2013-04-09 22:27:00,
2013-04-09 15:42:00,69.0,35.0,29.90,West,277,9.0,17.0,29,0.00,,,0.00,weatherlink.com 1.10,2013-04-09 22:42:00,
2013-04-09 15:57:00,68.2,37.0,29.89,WNW,297,6.0,16.0,32,0.00,,,0.00,weatherlink.com 1.10,2013-04-09 22:57:00,
2013-04-09 16:12:00,68.5,36.0,29.89,West,281,2.0,12.0,30,0.00,,,0.00,weatherlink.com 1.10,2013-04-09 23:12:00,
2013-04-09 16:27:00,68.1,35.0,29.89,West,273,8.0,15.0,29,0.00,,,0.00,weatherlink.com 1.10,2013-04-09 23:27:00,
2013-04-09 16:42:00,67.3,35.0,29.89,West,273,2.0,15.0,30,0.00,,,0.00,weatherlink.com 1.10,2013-04-09 23:42:00,
2013-04-09 16:57:00,67.6,37.0,29.89,NNW,338,4.0,13.0,32,0.00,,,0.00,weatherlink.com 1.10,2013-04-09 23:57:00,
2013-04-09 17:12:00,66.9,36.0,29.89,NNW,336,1.0,13.0,32,0.00,,,0.00,weatherlink.com 1.10,2013-04-10 00:12:00,
2013-04-09 17:27:00,66.8,34.0,29.90,West,263,3.0,15.0,30,0.00,,,0.00,weatherlink.com 1.10,2013-04-10 00:27:00,
2013-04-09 17:42:00,66.9,35.0,29.90,WNW,285,4.0,9.0,31,0.00,,,0.00,weatherlink.com 1.10,2013-04-10 00:42:00,
2013-04-09 17:57:00,67.1,37.0,29.90,West,264,3.0,7.0,33,0.00,,,0.00,weatherlink.com 1.10,2013-04-10 00:57:00,
2013-04-09 18:12:00,66.9,38.0,29.91,WSW,255,2.0,7.0,34,0.00,,,0.00,weatherlink.com 1.10,2013-04-10 01:12:00,
2013-04-09 18:42:00,65.8,39.0,29.91,West,260,2.0,7.0,38,0.00,,,0.00,weatherlink.com 1.10,2013-04-10 01:42:00,
2013-04-09 18:57:00,66.4,41.0,29.91,WSW,256,0.0,2.0,40,0.00,,,0.00,weatherlink.com 1.10,2013-04-10 01:57:00,
2013-04-09 19:12:00,64.6,41.0,29.92,WNW,285,1.0,2.0,42,0.00,,,0.00,weatherlink.com 1.10,2013-04-10 02:12:00,
2013-04-09 19:27:00,62.2,41.0,29.92,West,277,2.0,2.0,46,0.00,,,0.00,weatherlink.com 1.10,2013-04-10 02:27:00,
2013-04-09 19:42:00,60.6,42.0,29.92,WNW,284,0.0,1.0,50,0.00,,,0.00,weatherlink.com 1.10,2013-04-10 02:42:00,
2013-04-09 19:57:00,59.1,41.0,29.94,SE,133,0.0,1.0,52,0.00,,,0.00,weatherlink.com 1.10,2013-04-10 02:57:00,
2013-04-09 20:12:00,57.1,41.0,29.94,SE,132,1.0,1.0,55,0.00,,,0.00,weatherlink.com 1.10,2013-04-10 03:12:00,
2013-04-09 20:27:00,55.8,41.0,29.94,SE,132,0.0,1.0,57,0.00,,,0.00,weatherlink.com 1.10,2013-04-10 03:27:00,
2013-04-09 20:43:00,54.5,40.0,29.95,SE,132,0.0,1.0,59,0.00,,,0.00,weatherlink.com 1.10,2013-04-10 03:43:00,
2013-04-09 20:58:00,53.0,40.0,29.96,SE,132,0.0,0.0,61,0.00,,,0.00,weatherlink.com 1.10,2013-04-10 03:58:00,
2013-04-09 21:13:00,52.0,40.0,29.97,SE,132,0.0,0.0,63,0.00,,,0.00,weatherlink.com 1.10,2013-04-10 04:13:00,
2013-04-09 21:28:00,51.2,40.0,29.98,SE,132,0.0,0.0,65,0.00,,,0.00,weatherlink.com 1.10,2013-04-10 04:28:00,
2013-04-09 21:43:00,50.7,40.0,29.98,SE,132,0.0,0.0,66,0.00,,,0.00,weatherlink.com 1.10,2013-04-10 04:43:00,
2013-04-09 21:58:00,50.0,39.0,30.00,SE,129,0.0,0.0,67,0.00,,,0.00,weatherlink.com 1.10,2013-04-10 04:58:00,
2013-04-09 22:13:00,49.2,39.0,30.00,SE,130,0.0,0.0,67,0.00,,,0.00,weatherlink.com 1.10,2013-04-10 05:13:00,
2013-04-09 22:28:00,48.6,38.0,30.00,SE,129,0.0,0.0,68,0.00,,,0.00,weatherlink.com 1.10,2013-04-10 05:28:00,
2013-04-09 22:43:00,48.2,38.0,30.01,SE,130,0.0,0.0,69,0.00,,,0.00,weatherlink.com 1.10,2013-04-10 05:43:00,
2013-04-09 22:58:00,48.1,38.0,30.01,NE,51,0.0,0.0,68,0.00,,,0.00,weatherlink.com 1.10,2013-04-10 05:58:00,
2013-04-09 23:13:00,47.8,38.0,30.02,NE,51,0.0,0.0,69,0.00,,,0.00,weatherlink.com 1.10,2013-04-10 06:13:00,
2013-04-09 23:28:00,47.3,38.0,30.02,NE,51,0.0,0.0,71,0.00,,,0.00,weatherlink.com 1.10,2013-04-10 06:28:00,
2013-04-09 23:43:00,46.8,38.0,30.02,NE,51,0.0,0.0,71,0.00,,,0.00,weatherlink.com 1.10,2013-04-10 06:43:00,
2013-04-09 23:58:00,46.5,38.0,30.02,NE,51,0.0,0.0,72,0.00,,,0.00,weatherlink.com 1.10,2013-04-10 06:58:00,